sensor_id;sensor_type;location;lat;lon;timestamp;pressure;altitude;pressure_sealevel;temperature;humidity
64679;BME280;51094;53.864;27.676;2024-03-23T00:52:31;98200.41;;;6.11;93.41
64679;BME280;51094;53.864;27.676;2024-03-23T00:54:57;98209.56;;;6.15;93.56
64679;BME280;51094;53.864;27.676;2024-03-23T00:57:23;98100.78;;;5.59;92.87
64679;BME280;51094;53.864;27.676;2024-03-23T00:59:50;98169.16;;;6.03;93.40
64679;BME280;51094;53.864;27.676;2024-03-23T01:02:16;98176.22;;;6.12;93.85
64679;BME280;51094;53.864;27.676;2024-03-23T01:04:42;98166.63;;;6.14;93.92
64679;BME280;51094;53.864;27.676;2024-03-23T01:07:08;98168.22;;;6.04;94.03
64679;BME280;51094;53.864;27.676;2024-03-23T01:09:34;98169.41;;;6.11;94.08
64679;BME280;51094;53.864;27.676;2024-03-23T01:12:00;98170.66;;;6.18;93.83
64679;BME280;51094;53.864;27.676;2024-03-23T01:14:27;98090.44;;;5.72;93.59
64679;BME280;51094;53.864;27.676;2024-03-23T01:16:53;98129.72;;;6.00;93.41
64679;BME280;51094;53.864;27.676;2024-03-23T01:19:21;98111.25;;;5.94;93.89
64679;BME280;51094;53.864;27.676;2024-03-23T01:21:47;98154.34;;;6.17;93.64
64679;BME280;51094;53.864;27.676;2024-03-23T01:24:15;98155.78;;;6.09;94.04
64679;BME280;51094;53.864;27.676;2024-03-23T01:26:41;98080.72;;;5.75;93.89
64679;BME280;51094;53.864;27.676;2024-03-23T01:29:07;98152.25;;;6.22;94.39
64679;BME280;51094;53.864;27.676;2024-03-23T01:31:33;98106.09;;;5.81;94.10
64679;BME280;51094;53.864;27.676;2024-03-23T01:33:59;98144.63;;;6.21;94.18
64679;BME280;51094;53.864;27.676;2024-03-23T01:36:25;98141.94;;;6.22;94.54
64679;BME280;51094;53.864;27.676;2024-03-23T01:38:51;98124.81;;;6.09;94.01
64679;BME280;51094;53.864;27.676;2024-03-23T01:41:19;98181.47;;;6.23;94.71
64679;BME280;51094;53.864;27.676;2024-03-23T01:43:45;98147.41;;;6.18;94.63
64679;BME280;51094;53.864;27.676;2024-03-23T01:46:11;98139.06;;;6.14;94.87
64679;BME280;51094;53.864;27.676;2024-03-23T01:48:38;98138.94;;;6.16;95.34
64679;BME280;51094;53.864;27.676;2024-03-23T01:51:04;98122.34;;;6.07;95.88
64679;BME280;51094;53.864;27.676;2024-03-23T01:53:32;98126.56;;;6.21;95.20
64679;BME280;51094;53.864;27.676;2024-03-23T01:55:58;98011.31;;;4.47;95.28
64679;BME280;51094;53.864;27.676;2024-03-23T01:58:25;98108.69;;;6.18;95.17
64679;BME280;51094;53.864;27.676;2024-03-23T02:00:51;98104.97;;;6.22;95.59
64679;BME280;51094;53.864;27.676;2024-03-23T02:03:27;98078.84;;;6.03;95.13
64679;BME280;51094;53.864;27.676;2024-03-23T02:05:54;98150.81;;;6.18;94.97
64679;BME280;51094;53.864;27.676;2024-03-23T02:08:23;98116.72;;;6.26;94.89
64679;BME280;51094;53.864;27.676;2024-03-23T02:10:50;98066.66;;;6.05;95.14
64679;BME280;51094;53.864;27.676;2024-03-23T02:13:18;98088.97;;;6.17;95.32
64679;BME280;51094;53.864;27.676;2024-03-23T02:15:44;98045.50;;;5.87;95.00
64679;BME280;51094;53.864;27.676;2024-03-23T02:18:11;98101.44;;;6.23;96.12
64679;BME280;51094;53.864;27.676;2024-03-23T02:20:37;98055.50;;;6.04;96.18
64679;BME280;51094;53.864;27.676;2024-03-23T02:23:04;98069.16;;;6.17;96.52
64679;BME280;51094;53.864;27.676;2024-03-23T02:25:36;97992.81;;;5.78;95.54
64679;BME280;51094;53.864;27.676;2024-03-23T02:28:02;97988.31;;;5.69;95.89
64679;BME280;51094;53.864;27.676;2024-03-23T02:30:28;98029.59;;;6.06;95.45
64679;BME280;51094;53.864;27.676;2024-03-23T02:32:54;98057.78;;;6.20;95.62
64679;BME280;51094;53.864;27.676;2024-03-23T02:35:20;98074.28;;;6.30;96.50
64679;BME280;51094;53.864;27.676;2024-03-23T02:37:47;98040.44;;;6.22;96.28
64679;BME280;51094;53.864;27.676;2024-03-23T02:40:16;97993.91;;;5.99;96.55
64679;BME280;51094;53.864;27.676;2024-03-23T02:42:43;98019.50;;;6.14;96.07
64679;BME280;51094;53.864;27.676;2024-03-23T02:45:09;98071.63;;;6.43;96.32
64679;BME280;51094;53.864;27.676;2024-03-23T02:47:35;98060.69;;;6.39;96.53
64679;BME280;51094;53.864;27.676;2024-03-23T02:50:01;98034.34;;;6.23;96.85
64679;BME280;51094;53.864;27.676;2024-03-23T02:52:27;98067.97;;;6.34;97.50
64679;BME280;51094;53.864;27.676;2024-03-23T02:54:56;98047.75;;;6.28;97.94
64679;BME280;51094;53.864;27.676;2024-03-23T02:57:22;98059.16;;;6.37;97.52
64679;BME280;51094;53.864;27.676;2024-03-23T02:59:48;97997.91;;;6.04;97.89
64679;BME280;51094;53.864;27.676;2024-03-23T03:02:15;98037.91;;;6.33;98.35
64679;BME280;51094;53.864;27.676;2024-03-23T03:04:42;98068.66;;;6.36;97.68
64679;BME280;51094;53.864;27.676;2024-03-23T03:07:08;97973.25;;;5.99;97.58
64679;BME280;51094;53.864;27.676;2024-03-23T03:09:34;98045.13;;;6.52;97.17
64679;BME280;51094;53.864;27.676;2024-03-23T03:12:01;98044.06;;;6.54;97.48
64679;BME280;51094;53.864;27.676;2024-03-23T03:14:28;98041.25;;;6.46;97.31
64679;BME280;51094;53.864;27.676;2024-03-23T03:16:55;98045.94;;;6.52;97.86
64679;BME280;51094;53.864;27.676;2024-03-23T03:19:21;98052.75;;;6.53;98.00
64679;BME280;51094;53.864;27.676;2024-03-23T03:21:47;98045.94;;;6.52;97.01
64679;BME280;51094;53.864;27.676;2024-03-23T03:24:16;98035.59;;;6.52;97.85
64679;BME280;51094;53.864;27.676;2024-03-23T03:26:43;98031.28;;;6.53;97.49
64679;BME280;51094;53.864;27.676;2024-03-23T03:29:09;97934.66;;;5.98;98.30
64679;BME280;51094;53.864;27.676;2024-03-23T03:31:35;97987.22;;;6.32;97.96
64679;BME280;51094;53.864;27.676;2024-03-23T03:34:03;98008.34;;;6.37;98.24
64679;BME280;51094;53.864;27.676;2024-03-23T03:36:29;98022.13;;;6.49;97.90
64679;BME280;51094;53.864;27.676;2024-03-23T03:38:55;98038.69;;;6.57;97.83
64679;BME280;51094;53.864;27.676;2024-03-23T03:41:21;98000.38;;;6.40;98.21
64679;BME280;51094;53.864;27.676;2024-03-23T03:43:48;98044.56;;;6.59;98.20
64679;BME280;51094;53.864;27.676;2024-03-23T03:46:14;98040.31;;;6.58;98.18
64679;BME280;51094;53.864;27.676;2024-03-23T03:48:40;97962.06;;;6.23;98.68
64679;BME280;51094;53.864;27.676;2024-03-23T03:51:06;98017.78;;;6.60;98.57
64679;BME280;51094;53.864;27.676;2024-03-23T03:53:32;97924.22;;;5.99;98.69
64679;BME280;51094;53.864;27.676;2024-03-23T03:56:02;98011.53;;;6.52;98.19
64679;BME280;51094;53.864;27.676;2024-03-23T03:58:28;97997.81;;;6.51;98.05
64679;BME280;51094;53.864;27.676;2024-03-23T04:00:55;97982.31;;;6.51;98.75
64679;BME280;51094;53.864;27.676;2024-03-23T04:03:21;97965.88;;;6.41;98.90
64679;BME280;51094;53.864;27.676;2024-03-23T04:05:52;98005.13;;;6.68;99.06
64679;BME280;51094;53.864;27.676;2024-03-23T04:08:19;97964.13;;;6.42;97.76
64679;BME280;51094;53.864;27.676;2024-03-23T04:10:45;98005.47;;;6.64;97.58
64679;BME280;51094;53.864;27.676;2024-03-23T04:13:15;97877.00;;;5.86;97.38
64679;BME280;51094;53.864;27.676;2024-03-23T04:15:42;98018.53;;;6.74;97.49
64679;BME280;51094;53.864;27.676;2024-03-23T04:18:08;97980.09;;;6.47;97.54
64679;BME280;51094;53.864;27.676;2024-03-23T04:20:34;97961.25;;;6.22;97.54
64679;BME280;51094;53.864;27.676;2024-03-23T04:23:01;98007.72;;;6.68;97.60
64679;BME280;51094;53.864;27.676;2024-03-23T04:25:27;97985.16;;;6.48;97.93
64679;BME280;51094;53.864;27.676;2024-03-23T04:27:53;97944.25;;;6.31;98.18
64679;BME280;51094;53.864;27.676;2024-03-23T04:30:19;98057.25;;;6.62;98.54
64679;BME280;51094;53.864;27.676;2024-03-23T04:32:45;98001.47;;;6.60;98.95
64679;BME280;51094;53.864;27.676;2024-03-23T04:35:11;97985.59;;;6.42;98.92
64679;BME280;51094;53.864;27.676;2024-03-23T04:37:38;97983.25;;;6.50;98.89
64679;BME280;51094;53.864;27.676;2024-03-23T04:40:07;97991.38;;;6.57;99.51
64679;BME280;51094;53.864;27.676;2024-03-23T04:42:33;97994.34;;;6.75;99.05
64679;BME280;51094;53.864;27.676;2024-03-23T04:45:00;97980.22;;;6.56;98.13
64679;BME280;51094;53.864;27.676;2024-03-23T04:47:26;98001.97;;;6.76;98.45
64679;BME280;51094;53.864;27.676;2024-03-23T04:49:52;97995.06;;;6.77;98.35
64679;BME280;51094;53.864;27.676;2024-03-23T04:52:18;98005.53;;;6.40;98.28
64679;BME280;51094;53.864;27.676;2024-03-23T04:54:45;98005.50;;;6.75;98.88
64679;BME280;51094;53.864;27.676;2024-03-23T04:57:11;98000.44;;;6.74;98.96
64679;BME280;51094;53.864;27.676;2024-03-23T04:59:37;97916.66;;;6.20;99.17
64679;BME280;51094;53.864;27.676;2024-03-23T05:02:04;97703.25;;;4.95;99.32
64679;BME280;51094;53.864;27.676;2024-03-23T05:04:30;97942.41;;;6.44;99.05
64679;BME280;51094;53.864;27.676;2024-03-23T05:06:58;97996.59;;;6.79;99.08
64679;BME280;51094;53.864;27.676;2024-03-23T05:09:24;97912.78;;;6.26;98.98
64679;BME280;51094;53.864;27.676;2024-03-23T05:11:50;97952.41;;;6.49;99.00
64679;BME280;51094;53.864;27.676;2024-03-23T05:14:16;97995.53;;;6.82;99.89
64679;BME280;51094;53.864;27.676;2024-03-23T05:16:42;97862.41;;;5.98;99.41
64679;BME280;51094;53.864;27.676;2024-03-23T05:19:08;97980.94;;;6.70;99.27
64679;BME280;51094;53.864;27.676;2024-03-23T05:21:35;97725.22;;;5.12;99.44
64679;BME280;51094;53.864;27.676;2024-03-23T05:24:01;98003.97;;;6.73;100.00
64679;BME280;51094;53.864;27.676;2024-03-23T05:26:27;97999.28;;;6.78;100.00
64679;BME280;51094;53.864;27.676;2024-03-23T05:28:53;97954.84;;;6.50;100.00
64679;BME280;51094;53.864;27.676;2024-03-23T05:31:27;97906.59;;;5.93;100.00
64679;BME280;51094;53.864;27.676;2024-03-23T05:33:54;98004.00;;;6.84;99.89
64679;BME280;51094;53.864;27.676;2024-03-23T05:36:20;97922.91;;;6.40;99.94
64679;BME280;51094;53.864;27.676;2024-03-23T05:38:46;97990.59;;;6.79;100.00
64679;BME280;51094;53.864;27.676;2024-03-23T05:41:12;97939.84;;;6.44;100.00
64679;BME280;51094;53.864;27.676;2024-03-23T05:43:39;97996.00;;;6.76;100.00
64679;BME280;51094;53.864;27.676;2024-03-23T05:46:05;97893.63;;;6.06;100.00
64679;BME280;51094;53.864;27.676;2024-03-23T05:48:31;97929.38;;;6.46;100.00
64679;BME280;51094;53.864;27.676;2024-03-23T05:50:58;97999.28;;;7.00;100.00
64679;BME280;51094;53.864;27.676;2024-03-23T05:53:24;97964.75;;;6.79;99.87
64679;BME280;51094;53.864;27.676;2024-03-23T05:55:51;98004.22;;;7.03;100.00
64679;BME280;51094;53.864;27.676;2024-03-23T05:58:19;97940.31;;;6.60;98.99
64679;BME280;51094;53.864;27.676;2024-03-23T06:00:48;98004.47;;;7.00;99.93
64679;BME280;51094;53.864;27.676;2024-03-23T06:03:14;97997.19;;;7.05;100.00
64679;BME280;51094;53.864;27.676;2024-03-23T06:05:40;98008.47;;;7.04;98.98
64679;BME280;51094;53.864;27.676;2024-03-23T06:08:08;97899.66;;;6.51;98.99
64679;BME280;51094;53.864;27.676;2024-03-23T06:10:38;97974.88;;;7.04;98.97
64679;BME280;51094;53.864;27.676;2024-03-23T06:13:04;98011.03;;;7.04;98.30
64679;BME280;51094;53.864;27.676;2024-03-23T06:15:30;97891.91;;;6.51;98.83
64679;BME280;51094;53.864;27.676;2024-03-23T06:17:57;97879.72;;;6.42;98.77
64679;BME280;51094;53.864;27.676;2024-03-23T06:20:24;97981.81;;;7.15;98.23
64679;BME280;51094;53.864;27.676;2024-03-23T06:22:50;97940.69;;;6.89;97.47
64679;BME280;51094;53.864;27.676;2024-03-23T06:25:16;97862.59;;;6.41;97.26
64679;BME280;51094;53.864;27.676;2024-03-23T06:27:42;97837.69;;;6.18;96.65
64679;BME280;51094;53.864;27.676;2024-03-23T06:30:09;97767.09;;;5.73;97.08
64679;BME280;51094;53.864;27.676;2024-03-23T06:32:35;97985.91;;;7.06;97.19
64679;BME280;51094;53.864;27.676;2024-03-23T06:35:01;98001.66;;;7.25;97.23
64679;BME280;51094;53.864;27.676;2024-03-23T06:37:36;97989.19;;;7.19;96.65
64679;BME280;51094;53.864;27.676;2024-03-23T06:40:05;98025.28;;;7.32;96.34
64679;BME280;51094;53.864;27.676;2024-03-23T06:42:36;97941.03;;;6.85;95.98
64679;BME280;51094;53.864;27.676;2024-03-23T06:45:02;97955.69;;;6.95;96.15
64679;BME280;51094;53.864;27.676;2024-03-23T06:47:40;98007.50;;;7.39;96.55
64679;BME280;51094;53.864;27.676;2024-03-23T06:50:09;98006.81;;;7.48;95.93
64679;BME280;51094;53.864;27.676;2024-03-23T06:52:45;98008.91;;;7.43;95.31
64679;BME280;51094;53.864;27.676;2024-03-23T06:55:13;98018.09;;;7.47;95.57
64679;BME280;51094;53.864;27.676;2024-03-23T06:57:45;98003.03;;;7.41;95.78
64679;BME280;51094;53.864;27.676;2024-03-23T07:00:15;98019.97;;;7.45;95.13
64679;BME280;51094;53.864;27.676;2024-03-23T07:02:47;98012.91;;;7.47;94.85
64679;BME280;51094;53.864;27.676;2024-03-23T07:05:17;98015.97;;;7.52;94.98
64679;BME280;51094;53.864;27.676;2024-03-23T07:07:46;97899.44;;;6.65;94.42
64679;BME280;51094;53.864;27.676;2024-03-23T07:10:13;98005.03;;;7.48;94.19
64679;BME280;51094;53.864;27.676;2024-03-23T07:12:42;97993.41;;;7.43;94.59
64679;BME280;51094;53.864;27.676;2024-03-23T07:15:08;97929.28;;;7.03;94.38
64679;BME280;51094;53.864;27.676;2024-03-23T07:17:37;98015.03;;;7.64;94.40
64679;BME280;51094;53.864;27.676;2024-03-23T07:20:03;98002.56;;;7.58;94.26
64679;BME280;51094;53.864;27.676;2024-03-23T07:22:32;98014.66;;;7.68;93.77
64679;BME280;51094;53.864;27.676;2024-03-23T07:25:05;98010.22;;;7.48;92.94
64679;BME280;51094;53.864;27.676;2024-03-23T07:27:32;98024.06;;;7.58;93.60
64679;BME280;51094;53.864;27.676;2024-03-23T07:30:03;97918.00;;;7.04;93.85
64679;BME280;51094;53.864;27.676;2024-03-23T07:32:29;98010.78;;;7.63;93.21
64679;BME280;51094;53.864;27.676;2024-03-23T07:34:55;98007.28;;;7.53;93.26
64679;BME280;51094;53.864;27.676;2024-03-23T07:37:21;98011.84;;;7.60;92.93
64679;BME280;51094;53.864;27.676;2024-03-23T07:39:47;97997.63;;;7.44;93.95
64679;BME280;51094;53.864;27.676;2024-03-23T07:42:15;97958.13;;;7.42;94.08
64679;BME280;51094;53.864;27.676;2024-03-23T07:44:42;98016.41;;;7.79;93.14
64679;BME280;51094;53.864;27.676;2024-03-23T07:47:08;97960.00;;;7.62;93.77
64679;BME280;51094;53.864;27.676;2024-03-23T07:49:34;97982.59;;;7.92;92.38
64679;BME280;51094;53.864;27.676;2024-03-23T07:52:00;97971.09;;;7.85;92.81
64679;BME280;51094;53.864;27.676;2024-03-23T07:54:26;98010.06;;;8.15;92.11
64679;BME280;51094;53.864;27.676;2024-03-23T07:56:52;98021.00;;;8.19;91.69
64679;BME280;51094;53.864;27.676;2024-03-23T07:59:18;98014.06;;;8.19;91.64
64679;BME280;51094;53.864;27.676;2024-03-23T08:01:45;97969.78;;;7.90;91.09
64679;BME280;51094;53.864;27.676;2024-03-23T08:04:11;98008.41;;;8.14;90.30
64679;BME280;51094;53.864;27.676;2024-03-23T08:06:38;97962.59;;;7.94;91.21
64679;BME280;51094;53.864;27.676;2024-03-23T08:09:04;97998.13;;;8.24;91.02
64679;BME280;51094;53.864;27.676;2024-03-23T08:11:31;97747.97;;;6.76;90.32
64679;BME280;51094;53.864;27.676;2024-03-23T08:13:57;97990.53;;;8.43;91.13
64679;BME280;51094;53.864;27.676;2024-03-23T08:16:24;97987.69;;;8.46;90.88
64679;BME280;51094;53.864;27.676;2024-03-23T08:18:53;98011.94;;;8.45;88.84
64679;BME280;51094;53.864;27.676;2024-03-23T08:21:21;97879.44;;;7.66;88.39
64679;BME280;51094;53.864;27.676;2024-03-23T08:23:47;97962.63;;;8.15;88.81
64679;BME280;51094;53.864;27.676;2024-03-23T08:26:16;97977.81;;;8.40;89.62
64679;BME280;51094;53.864;27.676;2024-03-23T08:28:43;97988.38;;;8.48;89.21
64679;BME280;51094;53.864;27.676;2024-03-23T08:31:13;97946.78;;;8.08;88.21
64679;BME280;51094;53.864;27.676;2024-03-23T08:33:40;97979.22;;;8.65;88.90
64679;BME280;51094;53.864;27.676;2024-03-23T08:36:10;98009.16;;;8.79;87.99
64679;BME280;51094;53.864;27.676;2024-03-23T08:38:40;97960.66;;;8.60;87.45
64679;BME280;51094;53.864;27.676;2024-03-23T08:41:08;97975.91;;;8.84;87.00
64679;BME280;51094;53.864;27.676;2024-03-23T08:43:43;97984.31;;;8.76;86.32
64679;BME280;51094;53.864;27.676;2024-03-23T08:46:14;97981.59;;;8.78;86.55
64679;BME280;51094;53.864;27.676;2024-03-23T08:48:45;97995.19;;;8.70;86.20
64679;BME280;51094;53.864;27.676;2024-03-23T08:51:13;97284.00;;;4.33;85.95
64679;BME280;51094;53.864;27.676;2024-03-23T08:53:40;97968.38;;;8.81;86.35
64679;BME280;51094;53.864;27.676;2024-03-23T08:56:07;97901.66;;;8.31;86.18
64679;BME280;51094;53.864;27.676;2024-03-23T08:58:35;97961.94;;;8.96;85.41
64679;BME280;51094;53.864;27.676;2024-03-23T09:01:10;97952.91;;;8.70;84.92
64679;BME280;51094;53.864;27.676;2024-03-23T09:03:37;97965.78;;;8.81;85.20
64679;BME280;51094;53.864;27.676;2024-03-23T09:06:13;97977.50;;;8.75;85.66
64679;BME280;51094;53.864;27.676;2024-03-23T09:08:40;97955.28;;;8.52;85.73
64679;BME280;51094;53.864;27.676;2024-03-23T09:11:10;97943.91;;;8.43;85.96
64679;BME280;51094;53.864;27.676;2024-03-23T09:13:37;97961.97;;;8.54;86.22
64679;BME280;51094;53.864;27.676;2024-03-23T09:16:07;97956.72;;;8.45;86.68
64679;BME280;51094;53.864;27.676;2024-03-23T09:18:35;97958.31;;;8.25;86.69
64679;BME280;51094;53.864;27.676;2024-03-23T09:21:03;97952.94;;;8.49;86.61
64679;BME280;51094;53.864;27.676;2024-03-23T09:23:30;97964.50;;;8.45;86.96
64679;BME280;51094;53.864;27.676;2024-03-23T09:25:56;97956.34;;;8.49;87.13
64679;BME280;51094;53.864;27.676;2024-03-23T09:28:22;97959.63;;;8.51;86.07
64679;BME280;51094;53.864;27.676;2024-03-23T09:30:48;97941.31;;;8.43;86.45
64679;BME280;51094;53.864;27.676;2024-03-23T09:33:14;97958.00;;;8.50;86.32
64679;BME280;51094;53.864;27.676;2024-03-23T09:35:41;97964.38;;;8.46;86.64
64679;BME280;51094;53.864;27.676;2024-03-23T09:38:08;97963.38;;;8.58;87.32
64679;BME280;51094;53.864;27.676;2024-03-23T09:40:41;97968.72;;;8.66;86.50
64679;BME280;51094;53.864;27.676;2024-03-23T09:43:13;97950.63;;;8.76;86.43
64679;BME280;51094;53.864;27.676;2024-03-23T09:45:40;97948.47;;;8.81;85.84
64679;BME280;51094;53.864;27.676;2024-03-23T09:48:09;97933.09;;;8.89;85.88
64679;BME280;51094;53.864;27.676;2024-03-23T09:50:40;97843.75;;;8.53;85.73
64679;BME280;51094;53.864;27.676;2024-03-23T09:53:07;97950.44;;;9.29;83.69
64679;BME280;51094;53.864;27.676;2024-03-23T09:55:34;97878.53;;;8.91;83.13
64679;BME280;51094;53.864;27.676;2024-03-23T09:58:04;97950.91;;;9.53;84.18
64679;BME280;51094;53.864;27.676;2024-03-23T10:00:35;97931.13;;;9.52;83.25
64679;BME280;51094;53.864;27.676;2024-03-23T10:03:01;97868.22;;;9.20;82.31
64679;BME280;51094;53.864;27.676;2024-03-23T10:05:28;97909.09;;;9.37;80.62
64679;BME280;51094;53.864;27.676;2024-03-23T10:07:55;97955.13;;;9.54;81.05
64679;BME280;51094;53.864;27.676;2024-03-23T10:10:21;97949.94;;;9.45;81.71
64679;BME280;51094;53.864;27.676;2024-03-23T10:12:48;97946.69;;;9.52;81.63
64679;BME280;51094;53.864;27.676;2024-03-23T10:15:18;97945.88;;;9.52;80.22
64679;BME280;51094;53.864;27.676;2024-03-23T10:17:45;97848.31;;;8.71;80.34
64679;BME280;51094;53.864;27.676;2024-03-23T10:20:11;97866.47;;;8.80;80.71
64679;BME280;51094;53.864;27.676;2024-03-23T10:22:38;97713.34;;;7.73;80.46
64679;BME280;51094;53.864;27.676;2024-03-23T10:25:09;97945.19;;;9.10;80.79
64679;BME280;51094;53.864;27.676;2024-03-23T10:27:36;97876.09;;;8.59;80.96
64679;BME280;51094;53.864;27.676;2024-03-23T10:30:13;97956.53;;;9.09;81.23
64679;BME280;51094;53.864;27.676;2024-03-23T10:32:42;97948.19;;;9.05;81.23
64679;BME280;51094;53.864;27.676;2024-03-23T10:35:19;97951.47;;;9.07;81.46
64679;BME280;51094;53.864;27.676;2024-03-23T10:37:48;97952.97;;;9.10;81.35
64679;BME280;51094;53.864;27.676;2024-03-23T10:40:17;97902.81;;;8.90;80.67
64679;BME280;51094;53.864;27.676;2024-03-23T10:42:46;97776.72;;;8.09;80.43
64679;BME280;51094;53.864;27.676;2024-03-23T10:45:12;97953.13;;;9.08;81.21
64679;BME280;51094;53.864;27.676;2024-03-23T10:47:38;97607.66;;;6.96;81.07
64679;BME280;51094;53.864;27.676;2024-03-23T10:50:05;97927.69;;;9.02;82.00
64679;BME280;51094;53.864;27.676;2024-03-23T10:52:34;97960.19;;;9.06;81.23
64679;BME280;51094;53.864;27.676;2024-03-23T10:55:03;97932.28;;;8.89;81.69
64679;BME280;51094;53.864;27.676;2024-03-23T10:57:39;97957.81;;;8.93;81.24
64679;BME280;51094;53.864;27.676;2024-03-23T11:00:06;97883.19;;;8.36;82.59
64679;BME280;51094;53.864;27.676;2024-03-23T11:02:34;97934.44;;;8.53;83.16
64679;BME280;51094;53.864;27.676;2024-03-23T11:05:00;97942.38;;;8.41;83.75
64679;BME280;51094;53.864;27.676;2024-03-23T11:09:53;97929.66;;;8.17;84.08
64679;BME280;51094;53.864;27.676;2024-03-23T11:14:46;97961.84;;;8.35;85.42
64679;BME280;51094;53.864;27.676;2024-03-23T11:17:22;97963.63;;;8.55;84.73
64679;BME280;51094;53.864;27.676;2024-03-23T11:19:58;97942.28;;;8.73;83.68
64679;BME280;51094;53.864;27.676;2024-03-23T11:22:44;97929.06;;;8.76;83.53
64679;BME280;51094;53.864;27.676;2024-03-23T11:25:23;97937.47;;;8.89;83.52
64679;BME280;51094;53.864;27.676;2024-03-23T11:27:56;97911.88;;;9.05;83.13
64679;BME280;51094;53.864;27.676;2024-03-23T11:30:27;97915.41;;;9.73;83.16
64679;BME280;51094;53.864;27.676;2024-03-23T11:32:57;97861.69;;;10.31;80.66
64679;BME280;51094;53.864;27.676;2024-03-23T11:35:30;97896.78;;;11.19;75.33
64679;BME280;51094;53.864;27.676;2024-03-23T11:38:15;97899.78;;;12.05;73.09
64679;BME280;51094;53.864;27.676;2024-03-23T11:40:43;97825.03;;;11.34;69.50
64679;BME280;51094;53.864;27.676;2024-03-23T11:43:14;97950.03;;;11.25;71.08
64679;BME280;51094;53.864;27.676;2024-03-23T11:45:51;97890.63;;;10.83;71.51
64679;BME280;51094;53.864;27.676;2024-03-23T11:48:22;97880.47;;;10.62;72.26
64679;BME280;51094;53.864;27.676;2024-03-23T11:50:50;97899.03;;;10.77;73.09
64679;BME280;51094;53.864;27.676;2024-03-23T11:53:22;97904.66;;;10.73;72.25
64679;BME280;51094;53.864;27.676;2024-03-23T11:55:51;97893.34;;;10.54;71.96
64679;BME280;51094;53.864;27.676;2024-03-23T11:58:21;97901.75;;;10.39;73.42
64679;BME280;51094;53.864;27.676;2024-03-23T12:01:00;97900.00;;;10.20;73.89
64679;BME280;51094;53.864;27.676;2024-03-23T12:03:31;97898.59;;;10.35;73.21
64679;BME280;51094;53.864;27.676;2024-03-23T12:06:03;97896.69;;;10.37;73.03
64679;BME280;51094;53.864;27.676;2024-03-23T12:08:33;97902.06;;;10.73;71.78
64679;BME280;51094;53.864;27.676;2024-03-23T12:11:16;97877.59;;;10.65;71.56
64679;BME280;51094;53.864;27.676;2024-03-23T12:14:03;97881.03;;;10.56;70.57
64679;BME280;51094;53.864;27.676;2024-03-23T12:16:31;97885.22;;;10.20;71.08
64679;BME280;51094;53.864;27.676;2024-03-23T12:19:05;97692.16;;;8.88;71.34
64679;BME280;51094;53.864;27.676;2024-03-23T12:21:31;97875.97;;;10.55;71.71
64679;BME280;51094;53.864;27.676;2024-03-23T12:23:57;97856.97;;;10.54;70.56
64679;BME280;51094;53.864;27.676;2024-03-23T12:26:24;97809.22;;;10.55;70.99
64679;BME280;51094;53.864;27.676;2024-03-23T12:28:52;97825.69;;;10.74;70.13
64679;BME280;51094;53.864;27.676;2024-03-23T12:31:18;97827.44;;;13.76;67.84
64679;BME280;51094;53.864;27.676;2024-03-23T12:33:44;97855.03;;;13.62;63.78
64679;BME280;51094;53.864;27.676;2024-03-23T12:36:10;97849.44;;;15.32;59.62
64679;BME280;51094;53.864;27.676;2024-03-23T12:38:36;97841.22;;;18.43;53.20
64679;BME280;51094;53.864;27.676;2024-03-23T12:41:03;97820.19;;;18.22;47.50
64679;BME280;51094;53.864;27.676;2024-03-23T12:43:31;97839.97;;;20.02;45.88
64679;BME280;51094;53.864;27.676;2024-03-23T12:45:58;97858.28;;;19.30;43.97
64679;BME280;51094;53.864;27.676;2024-03-23T12:48:24;97842.91;;;17.59;47.22
64679;BME280;51094;53.864;27.676;2024-03-23T12:50:54;97837.75;;;16.12;50.07
64679;BME280;51094;53.864;27.676;2024-03-23T12:53:20;97849.41;;;15.10;53.47
64679;BME280;51094;53.864;27.676;2024-03-23T12:55:47;97849.81;;;14.03;55.75
64679;BME280;51094;53.864;27.676;2024-03-23T12:58:13;97762.97;;;12.77;58.59
64679;BME280;51094;53.864;27.676;2024-03-23T13:00:39;97853.66;;;12.57;59.70
64679;BME280;51094;53.864;27.676;2024-03-23T13:03:05;97845.97;;;11.96;62.20
64679;BME280;51094;53.864;27.676;2024-03-23T13:05:32;97804.09;;;11.18;64.21
64679;BME280;51094;53.864;27.676;2024-03-23T13:07:58;97850.91;;;11.18;64.82
64679;BME280;51094;53.864;27.676;2024-03-23T13:10:24;97852.38;;;11.03;66.26
64679;BME280;51094;53.864;27.676;2024-03-23T13:12:50;97819.16;;;12.04;66.23
64679;BME280;51094;53.864;27.676;2024-03-23T13:15:16;97835.56;;;12.90;61.76
64679;BME280;51094;53.864;27.676;2024-03-23T13:17:43;97702.59;;;12.14;60.57
64679;BME280;51094;53.864;27.676;2024-03-23T13:20:10;97810.66;;;12.53;60.31
64679;BME280;51094;53.864;27.676;2024-03-23T13:22:39;97815.47;;;12.14;62.04
64679;BME280;51094;53.864;27.676;2024-03-23T13:25:06;97824.31;;;12.21;62.13
64679;BME280;51094;53.864;27.676;2024-03-23T13:27:32;97800.38;;;12.26;61.91
64679;BME280;51094;53.864;27.676;2024-03-23T13:29:58;97807.69;;;12.56;61.80
64679;BME280;51094;53.864;27.676;2024-03-23T13:32:24;97802.16;;;12.51;60.55
64679;BME280;51094;53.864;27.676;2024-03-23T13:34:50;97736.41;;;11.97;61.46
64679;BME280;51094;53.864;27.676;2024-03-23T13:37:16;97701.63;;;11.81;61.97
64679;BME280;51094;53.864;27.676;2024-03-23T13:39:42;97677.50;;;11.53;61.37
64679;BME280;51094;53.864;27.676;2024-03-23T13:42:08;97764.38;;;11.52;62.76
64679;BME280;51094;53.864;27.676;2024-03-23T13:44:34;97784.16;;;11.45;64.00
64679;BME280;51094;53.864;27.676;2024-03-23T13:47:02;97780.22;;;11.23;64.99
64679;BME280;51094;53.864;27.676;2024-03-23T13:49:30;97796.13;;;11.20;66.05
64679;BME280;51094;53.864;27.676;2024-03-23T13:51:59;97796.72;;;11.14;65.47
64679;BME280;51094;53.864;27.676;2024-03-23T13:54:26;97713.59;;;10.31;66.31
64679;BME280;51094;53.864;27.676;2024-03-23T13:56:56;97798.59;;;10.76;67.58